Paris, France

14:00 CEST le 24 octobre 2014 (GMT +0200)
Charles de Gaulle | Change Station
CLOSE
Current Station
Aéroport
Location: Paris / Charles De Gaulle,
Altitude: 367 ft
Stations météo à proximité

Alt. 367 ft 49.02 °N, 2.53 °E | Updated 30 minutes ago

Mostly Cloudy
Nuageux
57 ° F
Paraît 57 ° F
N
12
Vent Variable Vent de Sud

Aujourd'hui
Haut(e) -- | Bas -- ° F
--% Risque de précip.
Hier
Haut(e) -- | Bas -- ° F
Precip. -- pouce
8:24 AM 6:43 PM
Nouvelle lune, 0% visible
Pression 30.12 pouce
Visibilité 6.2 Miles terrestres
Nuages Nuageux 4000 ft
Nuageux 9300 ft
Point de rosée 46 ° F
Humidité 67%
Précipitations 0.00 pouce
Profondeur de la couche neigeuse Non disponible.
UV 2 sur 12
Pollen Non disponible.
Qualité de l'air Non disponible.
Flu Activity Non disponible.
METAR LFPG 241130Z 19010KT 9999 BKN040 BKN093 14/08 Q1020 NOSIG

More Conditions Fewer Conditions

Pression 30.12 pouce
Visibilité 6.2 Miles terrestres
Nuages Nuageux 4000 ft
Nuageux 9300 ft
Point de rosée 46 ° F
Humidité 67%
Précipitations 0.00 pouce
Profondeur de la couche neigeuse Non disponible.
UV 2 sur 12
Pollen Non disponible.
Qualité de l'air Non disponible.
Flu Activity Non disponible.
METAR LFPG 241130Z 19010KT 9999 BKN040 BKN093 14/08 Q1020 NOSIG

More Conditions Fewer Conditions

10-Day Weather Forecast

Almanac

Astronomie

Oct. 24, 2014 Lever Coucher
Temps réel 08:24 CEST 18:43 CEST
Crépuscule civil 07:51 CEST 19:15 CEST
Crépuscule nautique 07:14 CEST 19:52 CEST
Crépuscule astronomique 06:37 CEST 20:29 CEST
Lune 08:49 CEST 19:09 CEST
Durée de lumière visible 11h 24m
Longueur du jour
10h 19m
Tomorrow will be 3m 24s shorter.
Nouvelle lune, 0% of the Moon is Illuminated
Aujourd'hui
Nouvelle lune
Oct 30
Premier quartier
Nov 6
Pleine lune
Nov 14
Dernier quartier
Nov 22
Nouveau

Les extrêmes de température d’hier

Country Highs Country Lows

Community

WunderPhotos

Upload Photos

1,764,528 Photos téléchargées !

Nearby

Qualité de l'air

Not available.

Épaisseur de neige

Not available.

Activité sismique

Ville Distance Mag. Time & Date
No recent earthquake activity has been reported nearby.
Minimum magnitude displayed is 2.5.

Températures des eaux côtières

Lieu Température
Aucun rapport de station

Stations météo à proximité